createdAt,value
2022-09-15T00:02:25.195Z,97.49
2022-09-15T00:04:51.832Z,97.91
2022-09-15T00:07:18.414Z,97.48
2022-09-15T00:09:44.854Z,97.57
2022-09-15T00:12:11.436Z,98.01
2022-09-15T00:14:37.890Z,99.29
2022-09-15T00:17:04.558Z,99.17
2022-09-15T00:19:31.057Z,98.92
2022-09-15T00:21:57.569Z,99.05
2022-09-15T00:24:24.067Z,99.31
2022-09-15T00:26:50.672Z,99.90
2022-09-15T00:29:17.118Z,99.50
2022-09-15T00:31:43.562Z,99.20
2022-09-15T00:34:12.206Z,98.94
2022-09-15T00:36:38.794Z,98.97
2022-09-15T00:39:05.607Z,98.91
2022-09-15T00:41:32.177Z,99.11
2022-09-15T00:44:01.649Z,99.02
2022-09-15T00:46:37.042Z,98.67
2022-09-15T00:49:21.221Z,98.75
2022-09-15T00:51:51.726Z,98.67
2022-09-15T00:54:22.552Z,99.38
2022-09-15T00:56:53.575Z,99.63
2022-09-15T00:59:24.321Z,98.43
2022-09-15T01:02:02.148Z,98.53
2022-09-15T01:04:28.961Z,98.25
2022-09-15T01:07:02.000Z,98.41
2022-09-15T01:09:34.817Z,98.69
2022-09-15T01:12:02.616Z,98.50
2022-09-15T01:14:29.206Z,98.55
2022-09-15T01:17:22.068Z,98.73
2022-09-15T01:20:26.182Z,99.13
2022-09-15T01:22:53.021Z,99.43
2022-09-15T01:25:31.813Z,100.00
2022-09-15T01:28:16.677Z,100.00
2022-09-15T01:30:54.873Z,99.93
2022-09-15T01:33:54.917Z,100.00
2022-09-15T01:36:44.970Z,100.00
2022-09-15T01:39:20.212Z,100.00
2022-09-15T01:41:55.949Z,100.00
2022-09-15T01:44:27.406Z,100.00
2022-09-15T01:46:59.580Z,100.00
2022-09-15T01:49:31.238Z,100.00
2022-09-15T01:51:57.674Z,100.00
2022-09-15T01:54:28.869Z,100.00
2022-09-15T01:56:56.131Z,100.00
2022-09-15T01:59:22.906Z,100.00
2022-09-15T02:01:58.816Z,100.00
2022-09-15T02:04:33.554Z,100.00
2022-09-15T02:07:30.361Z,100.00
2022-09-15T02:10:11.495Z,100.00
2022-09-15T02:12:47.907Z,100.00
2022-09-15T02:15:21.063Z,100.00
2022-09-15T02:17:54.033Z,100.00
2022-09-15T02:20:50.807Z,100.00
2022-09-15T02:23:26.174Z,100.00
2022-09-15T02:26:04.944Z,100.00
2022-09-15T02:28:36.694Z,100.00
2022-09-15T02:31:05.752Z,100.00
2022-09-15T02:33:40.096Z,100.00
2022-09-15T02:36:08.257Z,100.00
2022-09-15T02:38:40.765Z,100.00
2022-09-15T02:41:07.356Z,100.00
2022-09-15T02:43:34.143Z,100.00
2022-09-15T02:46:00.744Z,100.00
2022-09-15T02:48:27.262Z,100.00
2022-09-15T02:50:53.690Z,100.00
2022-09-15T02:53:20.103Z,100.00
2022-09-15T02:55:47.048Z,100.00
2022-09-15T02:58:13.460Z,100.00
2022-09-15T03:00:39.911Z,100.00
2022-09-15T03:03:06.369Z,100.00
2022-09-15T03:05:32.802Z,100.00
2022-09-15T03:07:59.265Z,100.00
2022-09-15T03:10:26.328Z,100.00
2022-09-15T03:12:54.331Z,100.00
2022-09-15T03:15:24.336Z,100.00
2022-09-15T03:17:51.104Z,100.00
2022-09-15T03:20:20.817Z,100.00
2022-09-15T03:22:47.883Z,100.00
2022-09-15T03:25:14.412Z,100.00
2022-09-15T03:27:40.939Z,100.00
2022-09-15T03:30:08.656Z,100.00
2022-09-15T03:32:35.300Z,100.00
2022-09-15T03:35:01.865Z,100.00
2022-09-15T03:37:28.517Z,100.00
2022-09-15T03:39:54.993Z,100.00
2022-09-15T03:42:21.771Z,100.00
2022-09-15T03:44:48.344Z,100.00
2022-09-15T03:47:14.810Z,100.00
2022-09-15T03:49:41.254Z,100.00
2022-09-15T03:52:07.725Z,100.00
2022-09-15T03:54:35.434Z,100.00
2022-09-15T03:57:01.905Z,100.00
2022-09-15T03:59:28.333Z,100.00
2022-09-15T04:01:54.839Z,100.00
2022-09-15T04:04:21.297Z,100.00
2022-09-15T04:06:47.712Z,100.00
2022-09-15T04:09:14.217Z,100.00
2022-09-15T04:11:40.958Z,100.00
2022-09-15T04:14:07.433Z,100.00
2022-09-15T04:16:34.083Z,100.00
2022-09-15T04:19:01.671Z,100.00
2022-09-15T04:21:28.122Z,100.00
2022-09-15T04:23:54.758Z,100.00
2022-09-15T04:26:34.323Z,100.00
2022-09-15T04:29:04.630Z,100.00
2022-09-15T04:31:33.138Z,100.00
2022-09-15T04:33:59.835Z,100.00
2022-09-15T04:36:28.177Z,100.00
2022-09-15T04:38:55.356Z,100.00
2022-09-15T04:41:22.649Z,100.00
2022-09-15T04:43:49.580Z,100.00
2022-09-15T04:46:16.759Z,100.00
2022-09-15T04:48:44.038Z,100.00
2022-09-15T04:51:17.147Z,100.00
2022-09-15T04:53:44.666Z,100.00
2022-09-15T04:56:13.981Z,100.00
2022-09-15T04:58:46.731Z,100.00
2022-09-15T05:01:18.996Z,100.00
2022-09-15T05:03:46.451Z,100.00
2022-09-15T05:06:15.905Z,100.00
2022-09-15T05:08:42.425Z,100.00
2022-09-15T05:11:11.632Z,100.00
2022-09-15T05:13:39.476Z,100.00
2022-09-15T05:16:18.523Z,100.00
2022-09-15T05:18:46.422Z,100.00
2022-09-15T05:21:14.729Z,100.00
2022-09-15T05:23:41.574Z,100.00
2022-09-15T05:26:12.072Z,100.00
2022-09-15T05:28:38.497Z,100.00
2022-09-15T05:31:13.733Z,100.00
2022-09-15T05:33:40.638Z,100.00
2022-09-15T05:36:07.471Z,100.00
2022-09-15T05:38:34.111Z,100.00
2022-09-15T05:41:10.295Z,100.00
2022-09-15T05:43:37.965Z,100.00
2022-09-15T05:46:05.939Z,100.00
2022-09-15T05:48:32.657Z,100.00
2022-09-15T05:50:59.097Z,100.00
2022-09-15T05:53:26.612Z,100.00
2022-09-15T05:55:57.341Z,100.00
2022-09-15T05:58:24.341Z,100.00
2022-09-15T06:00:53.239Z,100.00
2022-09-15T06:03:20.689Z,100.00
2022-09-15T06:05:47.851Z,100.00
2022-09-15T06:08:14.399Z,100.00
2022-09-15T06:10:40.827Z,100.00
2022-09-15T06:13:07.550Z,100.00
2022-09-15T06:15:34.200Z,100.00
2022-09-15T06:18:00.632Z,100.00
2022-09-15T06:20:27.110Z,100.00
2022-09-15T06:22:54.106Z,100.00
2022-09-15T06:25:20.584Z,100.00
2022-09-15T06:27:49.840Z,100.00
2022-09-15T06:30:16.422Z,100.00
2022-09-15T06:32:47.934Z,100.00
2022-09-15T06:35:15.223Z,100.00
2022-09-15T06:37:41.661Z,100.00
2022-09-15T06:40:08.842Z,99.79
2022-09-15T06:42:35.393Z,99.57
2022-09-15T06:45:01.846Z,99.66
2022-09-15T06:47:33.764Z,100.00
2022-09-15T06:50:00.859Z,99.78
2022-09-15T06:52:27.703Z,99.72
2022-09-15T06:54:54.158Z,99.66
2022-09-15T06:57:20.598Z,98.74
2022-09-15T06:59:47.070Z,99.31
2022-09-15T07:02:13.752Z,99.66
2022-09-15T07:04:40.250Z,99.76
2022-09-15T07:07:08.009Z,100.00
2022-09-15T07:09:34.544Z,100.00
2022-09-15T07:12:01.329Z,100.00
2022-09-15T07:14:27.756Z,100.00
2022-09-15T07:16:54.219Z,100.00
2022-09-15T07:19:20.697Z,100.00
2022-09-15T07:21:47.078Z,100.00
2022-09-15T07:24:14.526Z,100.00
2022-09-15T07:26:41.827Z,100.00
2022-09-15T07:29:09.706Z,100.00
2022-09-15T07:31:38.365Z,99.80
2022-09-15T07:34:05.981Z,99.94
2022-09-15T07:36:32.676Z,99.41
2022-09-15T07:38:59.189Z,98.78
2022-09-15T07:41:30.526Z,99.29
2022-09-15T07:43:59.124Z,99.39
2022-09-15T07:46:29.140Z,100.00
2022-09-15T07:48:58.419Z,99.96
2022-09-15T07:51:25.674Z,99.85
2022-09-15T07:53:52.912Z,100.00
2022-09-15T07:56:19.644Z,99.16
2022-09-15T07:58:46.964Z,99.04
2022-09-15T08:01:16.308Z,98.73
2022-09-15T08:03:45.177Z,97.95
2022-09-15T08:06:13.057Z,97.63
2022-09-15T08:08:40.931Z,97.85
2022-09-15T08:11:09.510Z,95.43
2022-09-15T08:13:36.366Z,95.82
2022-09-15T08:16:16.916Z,95.58
2022-09-15T08:18:44.192Z,95.57
2022-09-15T08:21:14.350Z,93.88
2022-09-15T08:23:41.060Z,94.68
2022-09-15T08:26:13.579Z,94.03
2022-09-15T08:28:40.743Z,93.25
2022-09-15T08:31:09.239Z,91.11
2022-09-15T08:33:35.982Z,90.47
2022-09-15T08:36:07.504Z,92.14
2022-09-15T08:38:34.173Z,90.73
2022-09-15T08:41:06.321Z,89.04
2022-09-15T08:44:00.327Z,86.84
2022-09-15T08:46:37.196Z,88.20
2022-09-15T08:49:10.509Z,86.47
2022-09-15T08:51:46.112Z,83.39
2022-09-15T08:54:22.658Z,82.53
2022-09-15T08:56:49.939Z,84.24
2022-09-15T08:59:18.257Z,84.71
2022-09-15T09:02:23.398Z,84.04
2022-09-15T09:04:52.800Z,84.95
2022-09-15T09:07:30.937Z,86.65
2022-09-15T09:10:46.218Z,81.33
2022-09-15T09:14:05.739Z,81.09
2022-09-15T09:17:00.070Z,83.06
2022-09-15T09:20:01.889Z,81.86
2022-09-15T09:22:34.681Z,81.37
2022-09-15T09:25:21.278Z,81.54
2022-09-15T09:27:50.436Z,80.66
2022-09-15T09:30:19.948Z,83.99
2022-09-15T09:33:08.557Z,79.58
2022-09-15T09:35:44.620Z,81.45
2022-09-15T09:38:31.716Z,81.67
2022-09-15T09:41:02.119Z,83.57
2022-09-15T09:43:30.426Z,84.07
2022-09-15T09:45:57.093Z,83.89
2022-09-15T09:48:27.640Z,81.94
2022-09-15T09:50:55.154Z,82.05
2022-09-15T09:53:34.248Z,84.25
2022-09-15T09:56:23.292Z,83.23
2022-09-15T09:58:50.223Z,84.10
2022-09-15T10:01:19.949Z,84.27
2022-09-15T10:03:46.892Z,84.21
2022-09-15T10:06:16.295Z,83.79
2022-09-15T10:08:58.729Z,83.87
2022-09-15T10:11:49.797Z,83.04
2022-09-15T10:14:22.492Z,81.95
2022-09-15T10:17:00.538Z,82.72
2022-09-15T10:19:44.780Z,80.83
2022-09-15T10:22:31.347Z,82.79
2022-09-15T10:25:00.423Z,81.61
2022-09-15T10:27:34.062Z,83.54
2022-09-15T10:30:12.853Z,83.10
2022-09-15T10:32:39.853Z,82.89
2022-09-15T10:35:21.118Z,79.67
2022-09-15T10:37:56.541Z,79.34
2022-09-15T10:40:33.568Z,80.83
2022-09-15T10:43:23.148Z,80.54
2022-09-15T10:45:59.984Z,78.23
2022-09-15T10:48:41.294Z,76.95
2022-09-15T10:51:10.482Z,76.88
2022-09-15T10:54:25.082Z,77.89
2022-09-15T10:56:57.290Z,77.35
2022-09-15T10:59:32.108Z,76.83
2022-09-15T11:02:20.206Z,77.72
2022-09-15T11:04:56.235Z,74.59
2022-09-15T11:07:44.769Z,76.53
2022-09-15T11:10:20.141Z,75.88
2022-09-15T11:13:00.167Z,72.36
2022-09-15T11:15:33.239Z,76.43
2022-09-15T11:18:24.169Z,74.30
2022-09-15T11:21:06.435Z,72.55
2022-09-15T11:24:11.958Z,70.75
2022-09-15T11:26:43.883Z,70.55
2022-09-15T11:29:18.010Z,71.92
2022-09-15T11:31:49.209Z,72.41
2022-09-15T11:34:22.991Z,72.15
2022-09-15T11:36:55.000Z,72.66
2022-09-15T11:39:30.446Z,68.61
2022-09-15T11:42:13.004Z,71.44
2022-09-15T11:44:41.412Z,70.04
2022-09-15T11:47:19.952Z,69.10
2022-09-15T11:50:03.618Z,68.46
2022-09-15T11:52:56.484Z,69.94
2022-09-15T11:55:30.388Z,71.00
2022-09-15T11:58:16.334Z,68.56
2022-09-15T12:00:54.435Z,70.45
2022-09-15T12:03:50.547Z,69.03
2022-09-15T12:06:35.090Z,69.28
2022-09-15T12:09:04.020Z,67.71
2022-09-15T12:11:34.565Z,66.90
2022-09-15T12:14:04.034Z,67.64
2022-09-15T12:16:33.167Z,70.07
2022-09-15T12:19:21.511Z,66.23
2022-09-15T12:21:51.155Z,68.73
2022-09-15T12:24:41.335Z,65.32
2022-09-15T12:27:16.382Z,65.08
2022-09-15T12:29:51.307Z,65.80
2022-09-15T12:32:21.323Z,64.16
2022-09-15T12:35:24.933Z,63.05
2022-09-15T12:37:59.050Z,64.58
2022-09-15T12:40:27.742Z,66.87
2022-09-15T12:42:54.522Z,67.15
2022-09-15T12:45:24.739Z,65.91
2022-09-15T12:48:11.947Z,66.31
2022-09-15T12:50:42.381Z,66.97
2022-09-15T12:53:21.949Z,65.75
2022-09-15T12:56:11.558Z,64.35
2022-09-15T12:58:40.767Z,64.98
2022-09-15T13:01:32.321Z,65.17
2022-09-15T13:03:58.928Z,66.15
2022-09-15T13:06:26.614Z,63.64
2022-09-15T13:08:53.057Z,66.27
2022-09-15T13:11:25.462Z,65.15
2022-09-15T13:14:11.161Z,63.02
2022-09-15T13:16:40.568Z,63.46
2022-09-15T13:19:41.369Z,63.65
2022-09-15T13:22:10.865Z,64.73
2022-09-15T13:24:46.100Z,64.28
2022-09-15T13:27:14.836Z,66.99
2022-09-15T13:30:11.317Z,66.36
2022-09-15T13:32:52.277Z,67.56
2022-09-15T13:35:40.358Z,65.55
2022-09-15T13:38:21.758Z,67.89
2022-09-15T13:41:10.508Z,67.81
2022-09-15T13:43:49.695Z,69.29
2022-09-15T13:46:28.858Z,69.98
2022-09-15T13:49:35.650Z,70.04
2022-09-15T13:52:23.316Z,69.44
2022-09-15T13:55:11.838Z,70.06
2022-09-15T14:00:43.333Z,70.62
2022-09-15T14:03:13.773Z,71.25
2022-09-15T14:05:40.553Z,71.00
2022-09-15T14:08:15.663Z,71.63
2022-09-15T14:10:48.326Z,72.76
2022-09-15T14:13:17.660Z,74.13
2022-09-15T14:16:10.411Z,75.09
2022-09-15T14:18:44.209Z,75.37
2022-09-15T14:21:16.848Z,75.43
2022-09-15T14:24:17.433Z,76.15
2022-09-15T14:26:43.868Z,76.59
2022-09-15T14:29:18.944Z,76.63
2022-09-15T14:31:45.720Z,77.40
2022-09-15T14:34:21.555Z,77.09
2022-09-15T14:37:04.218Z,76.48
2022-09-15T14:39:31.153Z,76.60
2022-09-15T14:47:28.327Z,76.10
2022-09-15T14:50:19.837Z,74.88
2022-09-15T14:53:02.926Z,74.64
2022-09-15T14:55:37.801Z,72.08
2022-09-15T14:58:45.524Z,71.48
2022-09-15T15:01:30.328Z,70.66
2022-09-15T15:04:20.122Z,70.12
2022-09-15T15:07:10.504Z,69.34
2022-09-15T15:09:50.383Z,67.40
2022-09-15T15:12:33.127Z,67.21
2022-09-15T15:15:00.325Z,67.71
2022-09-15T15:17:45.293Z,68.70
2022-09-15T15:20:14.043Z,67.84
2022-09-15T15:22:42.441Z,64.68
2022-09-15T15:25:29.337Z,65.84
2022-09-15T15:28:00.374Z,67.81
2022-09-15T15:30:30.463Z,66.90
2022-09-15T15:32:58.248Z,67.16
2022-09-15T15:35:25.237Z,66.93
2022-09-15T15:38:03.551Z,67.05
2022-09-15T15:40:30.562Z,69.23
2022-09-15T15:43:03.110Z,67.99
2022-09-15T15:45:31.702Z,68.35
2022-09-15T15:47:58.442Z,67.99
2022-09-15T15:50:28.236Z,67.72
2022-09-15T15:52:54.804Z,66.63
2022-09-15T15:55:28.358Z,67.12
2022-09-15T15:57:55.935Z,67.73
2022-09-15T16:00:29.607Z,68.54
2022-09-15T16:02:56.311Z,69.47
2022-09-15T16:05:26.904Z,68.42
2022-09-15T16:07:56.072Z,69.07
2022-09-15T16:10:25.691Z,68.96
2022-09-15T16:12:52.214Z,69.09
2022-09-15T16:15:21.352Z,69.00
2022-09-15T16:17:48.920Z,69.91
2022-09-15T16:20:16.363Z,70.26
2022-09-15T16:22:43.480Z,69.93
2022-09-15T16:25:23.210Z,69.89
2022-09-15T16:27:49.722Z,69.89
2022-09-15T16:30:16.155Z,69.34
2022-09-15T16:32:42.726Z,70.01
2022-09-15T16:35:35.062Z,69.13
2022-09-15T16:38:01.580Z,69.86
2022-09-15T16:40:28.225Z,69.90
2022-09-15T16:42:54.805Z,69.99
2022-09-15T16:45:38.069Z,70.54
2022-09-15T16:48:07.205Z,71.07
2022-09-15T16:50:33.839Z,71.57
2022-09-15T16:53:00.316Z,71.73
2022-09-15T16:55:46.068Z,71.22
2022-09-15T16:58:14.053Z,71.67
2022-09-15T17:00:42.074Z,72.49
2022-09-15T17:03:09.037Z,72.57
2022-09-15T17:05:43.050Z,72.35
2022-09-15T17:08:12.945Z,72.64
2022-09-15T17:10:40.371Z,73.03
2022-09-15T17:13:07.993Z,73.09
2022-09-15T17:15:37.791Z,73.54
2022-09-15T17:18:05.629Z,74.14
2022-09-15T17:20:38.537Z,74.35
2022-09-15T17:23:31.055Z,74.15
2022-09-15T17:26:00.018Z,74.09
2022-09-15T17:28:29.249Z,73.34
2022-09-15T17:30:58.268Z,72.80
2022-09-15T17:33:25.295Z,71.68
2022-09-15T17:35:52.248Z,68.65
2022-09-15T17:38:20.406Z,68.34
2022-09-15T17:40:48.184Z,69.06
2022-09-15T17:43:17.704Z,67.85
2022-09-15T17:45:44.547Z,67.60
2022-09-15T17:48:11.796Z,67.92
2022-09-15T17:50:39.129Z,68.18
2022-09-15T17:53:13.766Z,66.50
2022-09-15T17:55:40.642Z,67.33
2022-09-15T17:58:07.462Z,65.23
2022-09-15T18:00:39.669Z,65.84
2022-09-15T18:03:23.601Z,65.69
2022-09-15T18:05:51.021Z,64.66
2022-09-15T18:08:18.517Z,66.08
2022-09-15T18:10:45.453Z,65.11
2022-09-15T18:13:20.903Z,64.95
2022-09-15T18:15:48.983Z,64.69
2022-09-15T18:18:18.801Z,65.21
2022-09-15T18:20:45.737Z,66.37
2022-09-15T18:23:14.740Z,65.89
2022-09-15T18:25:42.318Z,66.85
2022-09-15T18:28:09.285Z,66.56
2022-09-15T18:30:40.646Z,66.69
2022-09-15T18:33:22.163Z,65.78
2022-09-15T18:35:50.413Z,66.87
2022-09-15T18:38:17.929Z,67.55
2022-09-15T18:40:47.547Z,67.66
2022-09-15T18:43:14.061Z,67.22
2022-09-15T18:45:42.664Z,66.83
2022-09-15T18:48:12.627Z,67.44
2022-09-15T18:50:40.474Z,67.08
2022-09-15T18:53:06.916Z,68.28
2022-09-15T18:55:33.412Z,67.46
2022-09-15T18:58:01.189Z,68.25
2022-09-15T19:00:28.842Z,67.68
2022-09-15T19:02:59.630Z,67.63
2022-09-15T19:05:28.133Z,68.67
2022-09-15T19:07:55.376Z,68.04
2022-09-15T19:10:22.302Z,68.68
2022-09-15T19:12:48.751Z,67.63
2022-09-15T19:15:15.682Z,68.79
2022-09-15T19:17:43.298Z,68.30
2022-09-15T19:20:12.587Z,68.28
2022-09-15T19:22:39.645Z,68.48
2022-09-15T19:25:07.751Z,69.04
2022-09-15T19:27:34.727Z,69.28
2022-09-15T19:30:01.708Z,69.41
2022-09-15T19:32:28.182Z,69.61
2022-09-15T19:34:54.623Z,69.57
2022-09-15T19:37:22.296Z,69.87
2022-09-15T19:39:50.086Z,69.94
2022-09-15T19:42:16.639Z,70.24
2022-09-15T19:44:43.156Z,70.62
2022-09-15T19:47:10.524Z,70.82
2022-09-15T19:49:37.258Z,70.87
2022-09-15T19:52:06.221Z,70.83
2022-09-15T19:54:34.429Z,71.04
2022-09-15T19:57:01.191Z,71.00
2022-09-15T19:59:31.225Z,71.56
2022-09-15T20:01:59.215Z,71.43
2022-09-15T20:04:25.866Z,71.76
2022-09-15T20:06:52.316Z,71.75
2022-09-15T20:09:18.791Z,72.12
2022-09-15T20:11:45.350Z,72.11
2022-09-15T20:14:11.996Z,72.33
2022-09-15T20:16:38.471Z,72.09
2022-09-15T20:19:05.086Z,72.24
2022-09-15T20:21:52.045Z,72.47
2022-09-15T20:24:19.783Z,72.68
2022-09-15T20:26:46.388Z,72.79
2022-09-15T20:29:13.817Z,73.05
2022-09-15T20:31:40.662Z,73.66
2022-09-15T20:34:07.379Z,73.41
2022-09-15T20:36:36.835Z,73.53
2022-09-15T20:39:06.072Z,73.96
2022-09-15T20:41:32.666Z,74.14
2022-09-15T20:44:00.150Z,74.19
2022-09-15T20:46:28.798Z,74.54
2022-09-15T20:48:55.294Z,74.24
2022-09-15T20:51:24.392Z,74.79
2022-09-15T20:53:53.335Z,74.48
2022-09-15T20:56:24.741Z,74.44
2022-09-15T20:59:01.484Z,74.47
2022-09-15T21:01:36.714Z,75.23
2022-09-15T21:04:04.374Z,75.87
2022-09-15T21:06:31.574Z,75.80
2022-09-15T21:08:58.568Z,74.98
2022-09-15T21:11:26.668Z,75.37
2022-09-15T21:13:53.848Z,75.28
2022-09-15T21:16:23.393Z,75.54
2022-09-15T21:18:51.331Z,75.19
2022-09-15T21:21:19.410Z,75.49
2022-09-15T21:23:48.210Z,75.77
2022-09-15T21:26:18.059Z,76.00
2022-09-15T21:28:45.349Z,75.86
2022-09-15T21:31:16.956Z,76.01
2022-09-15T21:33:44.518Z,76.12
2022-09-15T21:36:18.592Z,75.71
2022-09-15T21:38:45.298Z,75.97
2022-09-15T21:41:14.934Z,76.35
2022-09-15T21:43:44.525Z,76.87
2022-09-15T21:46:13.564Z,76.31
2022-09-15T21:48:40.687Z,77.34
2022-09-15T21:51:08.186Z,76.42
2022-09-15T21:53:34.998Z,77.56
2022-09-15T21:56:03.471Z,78.02
2022-09-15T21:58:39.070Z,78.19
2022-09-15T22:01:14.109Z,78.14
2022-09-15T22:03:42.568Z,77.81
2022-09-15T22:06:13.058Z,78.47
2022-09-15T22:08:40.104Z,79.13
2022-09-15T22:11:08.014Z,79.18
2022-09-15T22:13:36.971Z,78.71
2022-09-15T22:16:06.395Z,78.05
2022-09-15T22:18:36.755Z,79.32
2022-09-15T22:21:15.900Z,80.22
2022-09-15T22:23:43.736Z,79.50
2022-09-15T22:26:13.149Z,80.21
2022-09-15T22:28:39.909Z,80.29
2022-09-15T22:31:08.287Z,79.62
2022-09-15T22:33:35.070Z,79.96
2022-09-15T22:36:01.620Z,79.82
2022-09-15T22:38:29.978Z,79.58
2022-09-15T22:41:03.756Z,79.81
2022-09-15T22:43:30.219Z,79.72
2022-09-15T22:45:56.697Z,79.65
2022-09-15T22:48:23.634Z,79.68
2022-09-15T22:50:50.075Z,79.79
2022-09-15T22:53:16.517Z,79.73
2022-09-15T22:55:43.041Z,79.21
2022-09-15T22:58:09.554Z,79.83
2022-09-15T23:00:39.220Z,79.14
2022-09-15T23:03:06.571Z,78.92
2022-09-15T23:05:34.117Z,79.13
2022-09-15T23:08:00.675Z,79.42
2022-09-15T23:10:27.274Z,79.48
2022-09-15T23:12:54.221Z,78.88
2022-09-15T23:15:20.732Z,79.33
2022-09-15T23:17:47.437Z,79.25
2022-09-15T23:20:13.919Z,79.00
2022-09-15T23:22:40.377Z,78.77
2022-09-15T23:25:07.109Z,79.00
2022-09-15T23:27:33.611Z,79.20
2022-09-15T23:30:00.052Z,78.82
2022-09-15T23:32:26.490Z,79.22
2022-09-15T23:34:53.406Z,79.01
2022-09-15T23:37:19.822Z,79.25
2022-09-15T23:39:46.597Z,79.73
2022-09-15T23:42:18.077Z,79.38
2022-09-15T23:44:45.314Z,79.52
2022-09-15T23:47:11.710Z,79.53
2022-09-15T23:49:38.138Z,80.03
2022-09-15T23:52:04.585Z,79.38
2022-09-15T23:54:31.033Z,79.87
2022-09-15T23:56:57.541Z,79.67
2022-09-15T23:59:24.059Z,79.41
